Terminal Aerodrome Forecast
Issued by NWS Missoula, MT

Home | Current Version | Previous Version | Text Only | Print | Product List | Glossary On
Versions: 1 2 3 4 5 6 7 8 9 10 11 12 13
000
FTUS45 KMSO 210533
TAFMSO
TAF
KMSO 210533Z 2106/2206 35005KT P6SM BKN200
     FM211300 VRB03KT P6SM BKN100
     FM211600 28011KT P6SM -SHRA OVC060
     FM212000 29024G31KT P6SM SCT060
     FM220200 36008KT P6SM SKC=

USA.gov is the U.S. government's official web portal to all federal, state and local government web resources and services.